createdAt,value
2022-11-10T00:01:37.439Z,18.67
2022-11-10T00:04:22.973Z,18.65
2022-11-10T00:07:08.195Z,18.62
2022-11-10T00:09:53.872Z,18.79
2022-11-10T00:12:39.194Z,18.40
2022-11-10T00:15:43.210Z,18.27
2022-11-10T00:18:28.378Z,18.87
2022-11-10T00:21:15.406Z,18.47
2022-11-10T00:24:00.476Z,18.06
2022-11-10T00:26:45.871Z,18.46
2022-11-10T00:29:31.279Z,18.57
2022-11-10T00:32:16.753Z,18.41
2022-11-10T00:35:01.899Z,18.59
2022-11-10T00:37:49.539Z,17.86
2022-11-10T00:40:34.496Z,17.98
2022-11-10T00:43:25.291Z,17.83
2022-11-10T00:46:11.811Z,17.39
2022-11-10T00:48:57.118Z,18.10
2022-11-10T00:51:42.484Z,17.95
2022-11-10T00:54:27.738Z,17.67
2022-11-10T00:57:13.082Z,18.39
2022-11-10T00:59:58.452Z,18.01
2022-11-10T01:02:43.815Z,18.36
2022-11-10T01:05:30.481Z,18.58
2022-11-10T01:08:15.566Z,17.96
2022-11-10T01:11:16.210Z,18.28
2022-11-10T01:14:01.489Z,18.27
2022-11-10T01:16:46.729Z,17.89
2022-11-10T01:19:32.120Z,18.01
2022-11-10T01:22:17.447Z,18.03
2022-11-10T01:25:02.996Z,17.93
2022-11-10T01:27:48.389Z,18.04
2022-11-10T01:30:33.696Z,18.27
2022-11-10T01:33:22.156Z,17.65
2022-11-10T01:36:09.333Z,17.84
2022-11-10T01:38:54.720Z,17.66
2022-11-10T01:41:40.001Z,17.39
2022-11-10T01:44:26.190Z,17.16
2022-11-10T01:47:11.434Z,17.48
2022-11-10T01:49:57.043Z,17.60
2022-11-10T01:52:46.928Z,17.53
2022-11-10T01:55:34.411Z,17.55
2022-11-10T01:58:25.369Z,17.83
2022-11-10T02:01:10.882Z,17.53
2022-11-10T02:03:59.983Z,17.16
2022-11-10T02:06:46.847Z,17.38
2022-11-10T02:09:32.169Z,17.43
2022-11-10T02:12:36.937Z,17.59
2022-11-10T02:15:22.814Z,17.71
2022-11-10T02:18:07.990Z,17.22
2022-11-10T02:20:53.127Z,17.34
2022-11-10T02:23:38.279Z,17.16
2022-11-10T02:26:27.701Z,17.12
2022-11-10T02:29:13.370Z,17.14
2022-11-10T02:31:58.645Z,17.12
2022-11-10T02:34:44.167Z,17.09
2022-11-10T02:37:29.101Z,16.52
2022-11-10T02:40:14.462Z,16.32
2022-11-10T02:42:59.661Z,17.01
2022-11-10T02:45:45.521Z,17.20
2022-11-10T02:48:30.758Z,17.18
2022-11-10T02:51:16.179Z,17.19
2022-11-10T02:54:01.537Z,17.17
2022-11-10T02:56:47.106Z,17.07
2022-11-10T02:59:32.192Z,16.85
2022-11-10T03:02:17.412Z,16.96
2022-11-10T03:05:02.577Z,16.44
2022-11-10T03:07:59.401Z,16.31
2022-11-10T03:10:44.807Z,16.67
2022-11-10T03:13:45.217Z,16.65
2022-11-10T03:16:36.228Z,16.53
2022-11-10T03:19:21.449Z,16.42
2022-11-10T03:22:06.768Z,16.21
2022-11-10T03:24:51.964Z,15.90
2022-11-10T03:27:37.452Z,15.90
2022-11-10T03:30:22.670Z,15.88
2022-11-10T03:33:08.495Z,16.49
2022-11-10T03:35:53.518Z,16.54
2022-11-10T03:38:38.854Z,16.37
2022-11-10T03:41:24.275Z,16.11
2022-11-10T03:44:09.359Z,16.69
2022-11-10T03:46:54.625Z,16.89
2022-11-10T03:49:39.673Z,17.09
2022-11-10T03:52:25.069Z,16.61
2022-11-10T03:55:17.200Z,16.47
2022-11-10T03:58:03.338Z,16.48
2022-11-10T04:00:48.769Z,16.33
2022-11-10T04:03:34.460Z,16.90
2022-11-10T04:06:38.139Z,16.69
2022-11-10T04:09:23.344Z,16.89
2022-11-10T04:12:27.275Z,16.54
2022-11-10T04:15:31.690Z,15.89
2022-11-10T04:18:26.001Z,16.15
2022-11-10T04:21:12.195Z,16.46
2022-11-10T04:23:57.602Z,16.57
2022-11-10T04:26:43.728Z,17.05
2022-11-10T04:29:29.002Z,17.02
2022-11-10T04:32:14.239Z,17.23
2022-11-10T04:34:59.500Z,16.74
2022-11-10T04:37:46.620Z,16.77
2022-11-10T04:40:31.620Z,16.84
2022-11-10T04:43:16.895Z,17.16
2022-11-10T04:46:03.585Z,17.39
2022-11-10T04:48:49.670Z,16.81
2022-11-10T04:51:37.730Z,17.00
2022-11-10T04:54:23.343Z,17.42
2022-11-10T04:57:08.866Z,17.27
2022-11-10T04:59:54.184Z,17.45
2022-11-10T05:02:39.981Z,17.15
2022-11-10T05:05:25.352Z,17.48
2022-11-10T05:08:10.863Z,17.92
2022-11-10T05:10:55.858Z,17.53
2022-11-10T05:13:41.704Z,17.31
2022-11-10T05:16:27.098Z,17.33
2022-11-10T05:19:12.406Z,17.69
2022-11-10T05:21:57.741Z,17.35
2022-11-10T05:24:42.908Z,16.81
2022-11-10T05:27:30.131Z,16.87
2022-11-10T05:30:15.744Z,16.66
2022-11-10T05:33:01.227Z,17.26
2022-11-10T05:35:49.897Z,17.23
2022-11-10T05:38:40.229Z,17.14
2022-11-10T05:41:27.340Z,17.26
2022-11-10T05:44:12.567Z,17.27
2022-11-10T05:46:57.719Z,17.56
2022-11-10T05:49:42.935Z,17.81
2022-11-10T05:52:28.426Z,16.66
2022-11-10T05:55:14.442Z,16.20
2022-11-10T05:57:59.552Z,15.89
2022-11-10T06:00:44.866Z,15.65
2022-11-10T06:03:30.269Z,15.73
2022-11-10T06:06:15.699Z,15.41
2022-11-10T06:09:00.798Z,15.68
2022-11-10T06:11:46.069Z,15.68
2022-11-10T06:14:31.403Z,15.49
2022-11-10T06:17:16.862Z,15.48
2022-11-10T06:20:01.863Z,15.35
2022-11-10T06:23:07.451Z,15.28
2022-11-10T06:25:52.589Z,15.77
2022-11-10T06:28:37.961Z,15.49
2022-11-10T06:31:23.437Z,15.19
2022-11-10T06:34:08.883Z,15.36
2022-11-10T06:36:54.131Z,15.68
2022-11-10T06:39:39.344Z,15.44
2022-11-10T06:42:24.766Z,15.10
2022-11-10T06:45:10.133Z,15.40
2022-11-10T06:48:11.240Z,15.47
2022-11-10T06:51:00.390Z,15.73
2022-11-10T06:53:45.418Z,15.69
2022-11-10T06:56:31.968Z,15.44
2022-11-10T06:59:16.942Z,15.46
2022-11-10T07:02:02.404Z,15.56
2022-11-10T07:04:47.413Z,15.58
2022-11-10T07:07:32.702Z,15.66
2022-11-10T07:10:18.371Z,15.59
2022-11-10T07:13:04.439Z,15.61
2022-11-10T07:15:49.729Z,15.23
2022-11-10T07:18:35.993Z,15.19
2022-11-10T07:21:23.368Z,15.03
2022-11-10T07:24:09.097Z,15.30
2022-11-10T07:26:54.570Z,15.31
2022-11-10T07:29:39.882Z,15.21
2022-11-10T07:32:25.130Z,15.36
2022-11-10T07:35:10.372Z,15.51
2022-11-10T07:37:56.893Z,15.49
2022-11-10T07:40:42.055Z,15.38
2022-11-10T07:43:27.317Z,15.58
2022-11-10T07:46:12.562Z,15.52
2022-11-10T07:48:57.740Z,15.46
2022-11-10T07:51:43.318Z,15.53
2022-11-10T07:54:28.356Z,15.64
2022-11-10T07:57:13.752Z,15.66
2022-11-10T07:59:59.386Z,15.83
2022-11-10T08:02:44.443Z,15.85
2022-11-10T08:05:29.771Z,16.04
2022-11-10T08:08:15.074Z,15.94
2022-11-10T08:11:00.242Z,15.94
2022-11-10T08:13:45.461Z,16.10
2022-11-10T08:16:31.269Z,15.93
2022-11-10T08:19:16.444Z,16.02
2022-11-10T08:22:01.621Z,16.09
2022-11-10T08:24:47.215Z,16.17
2022-11-10T08:27:32.316Z,15.91
2022-11-10T08:30:17.809Z,16.11
2022-11-10T08:33:05.014Z,16.08
2022-11-10T08:35:51.835Z,16.27
2022-11-10T08:38:36.812Z,16.37
2022-11-10T08:41:22.038Z,16.28
2022-11-10T08:44:10.826Z,16.26
2022-11-10T08:46:56.703Z,16.42
2022-11-10T08:49:42.036Z,16.33
2022-11-10T08:52:27.636Z,16.57
2022-11-10T08:55:12.739Z,16.52
2022-11-10T08:58:02.822Z,16.43
2022-11-10T09:00:48.443Z,16.06
2022-11-10T09:03:33.825Z,16.53
2022-11-10T09:06:19.106Z,16.64
2022-11-10T09:09:04.551Z,16.73
2022-11-10T09:11:49.795Z,16.75
2022-11-10T09:14:35.078Z,16.43
2022-11-10T09:17:20.497Z,16.44
2022-11-10T09:20:07.328Z,16.70
2022-11-10T09:22:52.665Z,16.89
2022-11-10T09:25:38.711Z,16.93
2022-11-10T09:28:24.188Z,17.02
2022-11-10T09:31:09.440Z,16.66
2022-11-10T09:33:54.709Z,16.71
2022-11-10T09:36:40.422Z,16.91
2022-11-10T09:39:25.517Z,16.89
2022-11-10T09:42:36.696Z,16.85
2022-11-10T09:45:38.739Z,17.07
2022-11-10T09:48:30.904Z,16.78
2022-11-10T09:51:26.258Z,16.63
2022-11-10T09:54:23.605Z,16.89
2022-11-10T09:57:12.559Z,17.26
2022-11-10T09:59:57.615Z,17.17
2022-11-10T10:02:49.064Z,16.98
2022-11-10T10:05:40.567Z,16.98
2022-11-10T10:09:03.113Z,17.36
2022-11-10T10:11:54.223Z,17.27
2022-11-10T10:14:50.917Z,16.77
2022-11-10T10:18:03.993Z,17.16
2022-11-10T10:21:17.321Z,17.36
2022-11-10T10:24:10.471Z,17.34
2022-11-10T10:27:01.233Z,17.45
2022-11-10T10:29:49.336Z,17.55
2022-11-10T10:32:34.836Z,17.51
2022-11-10T10:35:20.055Z,17.08
2022-11-10T10:38:13.020Z,17.40
2022-11-10T10:41:10.001Z,17.42
2022-11-10T10:45:05.244Z,17.60
2022-11-10T10:47:53.061Z,17.55
2022-11-10T10:50:43.177Z,17.58
2022-11-10T10:53:28.646Z,17.79
2022-11-10T10:56:21.383Z,17.80
2022-11-10T10:59:20.831Z,17.79
2022-11-10T11:02:31.952Z,17.68
2022-11-10T11:05:19.700Z,17.44
2022-11-10T11:08:05.520Z,17.84
2022-11-10T11:10:50.858Z,17.98
2022-11-10T11:13:36.715Z,18.02
2022-11-10T11:16:22.159Z,17.86
2022-11-10T11:19:09.080Z,18.21
2022-11-10T11:22:28.451Z,18.06
2022-11-10T11:25:27.317Z,17.43
2022-11-10T11:28:34.119Z,18.08
2022-11-10T11:31:27.728Z,18.12
2022-11-10T11:34:22.106Z,18.26
2022-11-10T11:37:14.095Z,17.80
2022-11-10T11:40:16.833Z,17.86
2022-11-10T11:43:36.188Z,17.77
2022-11-10T11:46:33.765Z,17.75
2022-11-10T11:49:40.344Z,18.12
2022-11-10T11:52:57.958Z,18.21
2022-11-10T11:55:55.362Z,18.02
2022-11-10T11:58:40.220Z,18.49
2022-11-10T12:01:39.582Z,18.56
2022-11-10T12:04:49.587Z,18.53
2022-11-10T12:07:52.945Z,18.28
2022-11-10T12:10:47.046Z,17.90
2022-11-10T12:13:36.709Z,18.40
2022-11-10T12:16:31.302Z,18.28
2022-11-10T12:19:39.110Z,18.64
2022-11-10T12:22:38.686Z,18.57
2022-11-10T12:25:47.003Z,18.53
2022-11-10T12:28:37.857Z,18.73
2022-11-10T12:31:24.354Z,18.44
2022-11-10T12:34:22.444Z,18.27
2022-11-10T12:37:17.467Z,17.84
2022-11-10T12:40:19.395Z,18.32
2022-11-10T12:43:20.755Z,18.20
2022-11-10T12:46:11.018Z,18.09
2022-11-10T12:49:19.446Z,18.04
2022-11-10T12:52:28.703Z,18.07
2022-11-10T12:55:15.026Z,18.00
2022-11-10T12:58:01.449Z,18.06
2022-11-10T13:01:01.196Z,18.34
2022-11-10T13:04:01.140Z,17.60
2022-11-10T13:06:52.893Z,17.17
2022-11-10T13:09:42.495Z,17.56
2022-11-10T13:12:27.997Z,17.84
2022-11-10T13:15:35.231Z,17.74
2022-11-10T13:18:30.304Z,17.69
2022-11-10T13:21:15.290Z,17.80
2022-11-10T13:24:02.465Z,17.72
2022-11-10T13:26:59.925Z,17.80
2022-11-10T13:29:48.118Z,17.73
2022-11-10T13:32:34.249Z,17.50
2022-11-10T13:35:28.604Z,17.93
2022-11-10T13:38:32.376Z,17.96
2022-11-10T13:41:17.393Z,17.94
2022-11-10T13:44:03.064Z,17.90
2022-11-10T13:46:54.355Z,18.14
2022-11-10T13:50:00.155Z,17.97
2022-11-10T13:53:13.778Z,17.72
2022-11-10T13:56:04.718Z,17.99
2022-11-10T13:58:50.083Z,18.24
2022-11-10T14:01:35.117Z,17.85
2022-11-10T14:04:39.560Z,17.63
2022-11-10T14:07:27.694Z,17.47
2022-11-10T14:10:18.438Z,17.93
2022-11-10T14:13:24.632Z,18.23
2022-11-10T14:16:17.616Z,17.59
2022-11-10T14:19:16.050Z,18.10
2022-11-10T14:22:24.703Z,18.21
2022-11-10T14:25:24.775Z,18.19
2022-11-10T14:28:37.745Z,18.11
2022-11-10T14:31:25.957Z,18.12
2022-11-10T14:34:18.499Z,18.10
2022-11-10T14:37:04.681Z,18.26
2022-11-10T14:39:55.621Z,17.35
2022-11-10T14:42:40.739Z,17.87
2022-11-10T14:45:28.184Z,18.28
2022-11-10T14:48:20.737Z,18.20
2022-11-10T14:51:19.039Z,18.03
2022-11-10T14:54:04.152Z,18.02
2022-11-10T14:56:49.602Z,18.25
2022-11-10T14:59:34.714Z,18.39
2022-11-10T15:02:20.171Z,17.94
2022-11-10T15:05:05.939Z,18.19
2022-11-10T15:07:56.768Z,18.33
2022-11-10T15:10:48.144Z,17.79
2022-11-10T15:13:37.248Z,18.20
2022-11-10T15:16:38.694Z,18.18
2022-11-10T15:19:30.135Z,17.93
2022-11-10T15:22:19.834Z,17.86
2022-11-10T15:25:18.863Z,18.30
2022-11-10T15:28:14.206Z,17.71
2022-11-10T15:31:09.498Z,18.21
2022-11-10T15:34:00.885Z,17.76
2022-11-10T15:36:46.091Z,17.90
2022-11-10T15:39:32.471Z,18.04
2022-11-10T15:42:21.390Z,17.85
2022-11-10T15:45:07.164Z,18.28
2022-11-10T15:47:52.513Z,18.03
2022-11-10T15:50:37.491Z,18.44
2022-11-10T15:53:38.479Z,18.18
2022-11-10T15:56:24.854Z,18.16
2022-11-10T15:59:10.936Z,18.36
2022-11-10T16:01:56.665Z,18.28
2022-11-10T16:04:42.214Z,18.19
2022-11-10T16:07:27.528Z,18.18
2022-11-10T16:10:13.028Z,17.91
2022-11-10T16:12:58.201Z,17.98
2022-11-10T16:15:45.313Z,18.05
2022-11-10T16:18:31.035Z,17.79
2022-11-10T16:21:22.545Z,18.01
2022-11-10T16:24:08.018Z,18.01
2022-11-10T16:26:53.157Z,17.99
2022-11-10T16:29:39.051Z,18.08
2022-11-10T16:32:24.427Z,17.56
2022-11-10T16:35:14.150Z,18.00
2022-11-10T16:37:59.118Z,18.15
2022-11-10T16:40:45.169Z,17.94
2022-11-10T16:43:31.408Z,18.05
2022-11-10T16:46:21.341Z,18.38
2022-11-10T16:49:16.165Z,18.14
2022-11-10T16:52:13.830Z,17.92
2022-11-10T16:54:58.747Z,18.01
2022-11-10T16:57:43.946Z,18.26
2022-11-10T17:00:29.218Z,18.12
2022-11-10T17:03:28.751Z,18.21
2022-11-10T17:06:15.814Z,17.95
2022-11-10T17:09:26.676Z,18.20
2022-11-10T17:12:13.451Z,18.12
2022-11-10T17:14:58.664Z,18.21
2022-11-10T17:17:46.410Z,18.24
2022-11-10T17:20:39.797Z,18.11
2022-11-10T17:23:26.104Z,18.10
2022-11-10T17:26:14.184Z,17.89
2022-11-10T17:28:59.435Z,18.14
2022-11-10T17:31:45.241Z,18.41
2022-11-10T17:34:30.616Z,18.13
2022-11-10T17:37:16.127Z,18.47
2022-11-10T17:40:07.389Z,18.24
2022-11-10T17:42:52.976Z,18.38
2022-11-10T17:45:39.039Z,18.05
2022-11-10T17:48:24.061Z,18.35
2022-11-10T17:51:19.674Z,18.26
2022-11-10T17:54:05.968Z,18.00
2022-11-10T17:56:51.025Z,17.69
2022-11-10T17:59:36.141Z,17.53
2022-11-10T18:02:21.761Z,17.90
2022-11-10T18:05:07.029Z,17.91
2022-11-10T18:07:52.176Z,18.28
2022-11-10T18:10:42.083Z,18.31
2022-11-10T18:13:27.265Z,18.19
2022-11-10T18:16:14.381Z,18.19
2022-11-10T18:18:59.501Z,17.80
2022-11-10T18:21:44.698Z,17.90
2022-11-10T18:24:29.985Z,18.09
2022-11-10T18:27:15.393Z,18.00
2022-11-10T18:30:00.756Z,18.14
2022-11-10T18:32:45.695Z,18.07
2022-11-10T18:35:31.633Z,18.24
2022-11-10T18:38:16.891Z,18.31
2022-11-10T18:41:23.601Z,17.99
2022-11-10T18:44:08.949Z,18.05
2022-11-10T18:46:53.990Z,17.69
2022-11-10T18:49:39.336Z,17.86
2022-11-10T18:52:24.610Z,17.66
2022-11-10T18:55:10.522Z,17.90
2022-11-10T18:57:55.408Z,17.79
2022-11-10T19:00:40.767Z,17.87
2022-11-10T19:03:26.100Z,17.71
2022-11-10T19:06:12.959Z,17.44
2022-11-10T19:08:58.631Z,17.89
2022-11-10T19:11:44.379Z,18.41
2022-11-10T19:14:29.493Z,18.05
2022-11-10T19:17:14.781Z,18.03
2022-11-10T19:20:00.045Z,18.13
2022-11-10T19:22:45.475Z,18.25
2022-11-10T19:25:31.237Z,18.17
2022-11-10T19:28:16.564Z,18.12
2022-11-10T19:31:10.681Z,17.66
2022-11-10T19:33:57.889Z,17.54
2022-11-10T19:36:42.780Z,17.74
2022-11-10T19:39:28.062Z,17.90
2022-11-10T19:42:13.225Z,17.99
2022-11-10T19:44:59.246Z,17.82
2022-11-10T19:47:44.525Z,18.00
2022-11-10T19:50:29.779Z,17.97
2022-11-10T19:53:16.177Z,17.78
2022-11-10T19:56:06.371Z,18.11
2022-11-10T19:58:51.759Z,17.85
2022-11-10T20:01:37.611Z,16.96
2022-11-10T20:04:22.820Z,17.20
2022-11-10T20:07:26.663Z,17.18
2022-11-10T20:10:12.168Z,16.78
2022-11-10T20:12:57.554Z,17.41
2022-11-10T20:15:43.789Z,17.25
2022-11-10T20:18:29.040Z,17.15
2022-11-10T20:21:16.721Z,17.37
2022-11-10T20:24:01.823Z,17.51
2022-11-10T20:26:49.667Z,17.58
2022-11-10T20:29:34.936Z,17.31
2022-11-10T20:32:20.307Z,17.25
2022-11-10T20:35:05.868Z,17.29
2022-11-10T20:37:50.848Z,17.42
2022-11-10T20:40:44.412Z,17.19
2022-11-10T20:43:33.218Z,17.41
2022-11-10T20:46:52.828Z,17.40
2022-11-10T20:49:25.709Z,16.84
2022-11-10T20:52:10.957Z,16.91
2022-11-10T20:54:56.258Z,17.00
2022-11-10T20:57:41.495Z,17.12
2022-11-10T21:00:26.800Z,17.30
2022-11-10T21:03:12.010Z,17.23
2022-11-10T21:05:57.381Z,17.13
2022-11-10T21:08:42.945Z,17.16
2022-11-10T21:11:46.462Z,17.04
2022-11-10T21:14:31.978Z,17.37
2022-11-10T21:17:18.080Z,17.51
2022-11-10T21:20:03.971Z,17.48
2022-11-10T21:22:49.088Z,17.31
2022-11-10T21:25:34.377Z,16.94
2022-11-10T21:28:19.935Z,17.30
2022-11-10T21:31:05.648Z,17.19
2022-11-10T21:33:50.769Z,16.91
2022-11-10T21:36:35.968Z,17.21
2022-11-10T21:39:21.242Z,17.21
2022-11-10T21:42:06.541Z,17.19
2022-11-10T21:44:51.860Z,17.09
2022-11-10T21:47:37.049Z,16.99
2022-11-10T21:50:22.301Z,17.03
2022-11-10T21:53:08.475Z,17.21
2022-11-10T21:56:04.814Z,17.21
2022-11-10T21:58:49.834Z,17.27
2022-11-10T22:01:35.292Z,16.78
2022-11-10T22:04:20.509Z,17.08
2022-11-10T22:07:23.843Z,17.19
2022-11-10T22:10:28.965Z,17.32
2022-11-10T22:13:34.331Z,17.39
2022-11-10T22:16:41.942Z,17.25
2022-11-10T22:19:27.167Z,16.85
2022-11-10T22:22:14.367Z,17.02
2022-11-10T22:24:59.390Z,17.32
2022-11-10T22:27:44.723Z,17.24
2022-11-10T22:30:30.685Z,16.92
2022-11-10T22:33:28.035Z,17.14
2022-11-10T22:36:15.407Z,17.34
2022-11-10T22:39:03.586Z,17.09
2022-11-10T22:42:08.502Z,17.16
2022-11-10T22:44:53.597Z,17.04
2022-11-10T22:47:57.432Z,17.12
2022-11-10T22:50:42.703Z,16.97
2022-11-10T22:53:28.074Z,16.76
2022-11-10T22:56:13.444Z,16.82
2022-11-10T22:59:00.287Z,16.85
2022-11-10T23:01:45.959Z,17.01
2022-11-10T23:04:31.401Z,16.95
2022-11-10T23:07:16.714Z,16.57
2022-11-10T23:10:02.282Z,17.03
2022-11-10T23:12:47.397Z,16.97
2022-11-10T23:15:34.546Z,16.85
2022-11-10T23:18:20.964Z,16.63
2022-11-10T23:21:09.435Z,16.97
2022-11-10T23:23:55.068Z,16.96
2022-11-10T23:26:40.261Z,16.95
2022-11-10T23:29:25.455Z,16.87
2022-11-10T23:32:10.797Z,16.66
2022-11-10T23:34:56.013Z,16.91
2022-11-10T23:37:41.239Z,16.90
2022-11-10T23:40:26.541Z,16.62
2022-11-10T23:43:11.747Z,16.70
2022-11-10T23:46:12.638Z,16.69
2022-11-10T23:48:57.952Z,16.61
2022-11-10T23:51:43.337Z,16.33
2022-11-10T23:54:28.705Z,16.29
2022-11-10T23:57:13.885Z,16.83
2022-11-10T23:59:59.085Z,16.64
